createdAt,value
2018-12-26T00:02:28.500Z,55.50
2018-12-26T00:04:57.545Z,58.45
2018-12-26T00:07:26.633Z,47.23
2018-12-26T00:09:55.641Z,52.88
2018-12-26T00:12:24.737Z,54.95
2018-12-26T00:14:54.032Z,56.88
2018-12-26T00:17:23.237Z,34.90
2018-12-26T00:19:52.377Z,48.75
2018-12-26T00:22:21.367Z,45.35
2018-12-26T00:24:50.450Z,49.40
2018-12-26T00:27:19.522Z,43.92
2018-12-26T00:29:48.944Z,33.45
2018-12-26T00:32:18.064Z,61.40
2018-12-26T00:34:47.157Z,59.80
2018-12-26T00:37:16.240Z,59.20
2018-12-26T00:39:45.223Z,57.58
2018-12-26T00:42:14.373Z,52.75
2018-12-26T00:44:43.414Z,52.45
2018-12-26T00:47:12.454Z,51.20
2018-12-26T00:49:41.378Z,52.55
2018-12-26T00:52:10.305Z,53.98
2018-12-26T00:54:39.355Z,47.95
2018-12-26T00:57:08.401Z,44.67
2018-12-26T00:59:38.669Z,53.63
2018-12-26T01:02:07.756Z,36.58
2018-12-26T01:04:36.820Z,33.65
2018-12-26T01:07:05.841Z,55.40
2018-12-26T01:09:34.820Z,55.73
2018-12-26T01:12:03.772Z,41.63
2018-12-26T01:14:32.800Z,56.23
2018-12-26T01:17:01.776Z,54.00
2018-12-26T01:19:30.849Z,52.60
2018-12-26T01:21:59.746Z,54.05
2018-12-26T01:24:28.708Z,55.90
2018-12-26T01:26:57.731Z,55.75
2018-12-26T01:29:26.816Z,50.83
2018-12-26T01:31:56.060Z,53.70
2018-12-26T01:34:25.208Z,55.63
2018-12-26T01:36:54.293Z,54.98
2018-12-26T01:39:23.424Z,53.68
2018-12-26T01:41:52.403Z,51.75
2018-12-26T01:44:21.365Z,57.13
2018-12-26T01:46:50.358Z,56.63
2018-12-26T01:49:19.217Z,57.60
2018-12-26T01:51:48.276Z,39.98
2018-12-26T01:54:17.286Z,51.60
2018-12-26T01:56:46.332Z,55.35
2018-12-26T01:59:15.355Z,43.42
2018-12-26T02:02:03.521Z,53.92
2018-12-26T02:04:51.661Z,54.95
2018-12-26T02:07:39.919Z,55.23
2018-12-26T02:10:28.052Z,49.33
2018-12-26T02:13:16.333Z,52.38
2018-12-26T02:16:04.516Z,46.33
2018-12-26T02:21:46.401Z,58.73
2018-12-26T02:24:34.581Z,53.52
2018-12-26T02:27:22.720Z,58.40
2018-12-26T02:30:02.205Z,52.00
2018-12-26T02:32:50.374Z,56.15
2018-12-26T02:35:38.560Z,53.48
2018-12-26T02:41:34.067Z,54.30
2018-12-26T02:44:22.190Z,61.80
2018-12-26T02:52:51.494Z,53.95
2018-12-26T02:55:32.441Z,58.52
2018-12-26T02:58:13.871Z,53.02
2018-12-26T03:00:54.750Z,44.35
2018-12-26T03:03:35.392Z,46.37
2018-12-26T03:06:15.905Z,52.50
2018-12-26T03:08:56.770Z,56.50
2018-12-26T03:11:37.322Z,59.00
2018-12-26T03:14:18.245Z,54.53
2018-12-26T03:16:59.060Z,58.38
2018-12-26T03:19:39.824Z,54.80
2018-12-26T03:22:20.694Z,50.73
2018-12-26T03:25:01.962Z,55.70
2018-12-26T03:27:43.119Z,42.35
2018-12-26T03:30:24.259Z,56.13
2018-12-26T03:33:05.711Z,52.80
2018-12-26T03:35:47.168Z,41.58
2018-12-26T03:38:28.076Z,59.42
2018-12-26T03:41:08.574Z,51.55
2018-12-26T03:43:49.703Z,55.10
2018-12-26T03:46:30.277Z,55.67
2018-12-26T03:49:11.421Z,52.60
2018-12-26T03:51:52.661Z,52.20
2018-12-26T03:54:33.452Z,37.00
2018-12-26T03:57:14.027Z,47.78
2018-12-26T03:59:54.724Z,50.48
2018-12-26T04:02:35.683Z,51.18
2018-12-26T04:05:16.306Z,57.25
2018-12-26T04:07:56.857Z,59.48
2018-12-26T04:10:38.173Z,59.05
2018-12-26T04:13:19.221Z,55.52
2018-12-26T04:15:59.918Z,60.03
2018-12-26T04:18:40.718Z,43.75
2018-12-26T04:21:21.334Z,48.85
2018-12-26T04:24:02.741Z,51.37
2018-12-26T04:26:43.980Z,52.20
2018-12-26T04:29:25.302Z,57.53
2018-12-26T04:32:06.589Z,50.70
2018-12-26T04:34:47.405Z,56.58
2018-12-26T04:37:27.948Z,51.23
2018-12-26T04:40:09.201Z,55.90
2018-12-26T04:42:49.979Z,51.75
2018-12-26T04:45:30.977Z,51.70
2018-12-26T04:48:11.724Z,52.80
2018-12-26T04:50:52.869Z,50.67
2018-12-26T04:53:33.461Z,39.40
2018-12-26T04:56:14.674Z,53.75
2018-12-26T04:58:55.889Z,44.25
2018-12-26T05:01:36.822Z,54.55
2018-12-26T05:04:17.636Z,59.05
2018-12-26T05:06:58.844Z,45.83
2018-12-26T05:09:39.612Z,50.55
2018-12-26T05:12:20.166Z,47.40
2018-12-26T05:15:00.790Z,54.70
2018-12-26T05:17:41.644Z,54.42
2018-12-26T05:20:22.841Z,55.25
2018-12-26T05:23:04.242Z,57.08
2018-12-26T05:25:45.333Z,53.70
2018-12-26T05:28:25.857Z,56.98
2018-12-26T05:31:07.236Z,57.93
2018-12-26T05:33:48.509Z,56.53
2018-12-26T05:36:27.992Z,61.00
2018-12-26T05:39:16.115Z,55.65
2018-12-26T05:44:58.053Z,58.15
2018-12-26T05:47:46.210Z,63.35
2018-12-26T05:50:34.337Z,64.50
2018-12-26T05:56:16.702Z,62.30
2018-12-26T06:01:52.269Z,59.13
2018-12-26T06:04:33.532Z,59.03
2018-12-26T06:07:14.233Z,59.75
2018-12-26T06:09:55.186Z,56.77
2018-12-26T06:12:36.024Z,55.50
2018-12-26T06:15:17.350Z,57.88
2018-12-26T06:17:58.637Z,63.10
2018-12-26T06:20:39.509Z,60.55
2018-12-26T06:23:20.391Z,39.03
2018-12-26T06:26:01.069Z,60.48
2018-12-26T06:28:41.806Z,60.65
2018-12-26T06:31:23.001Z,65.03
2018-12-26T06:34:03.798Z,57.75
2018-12-26T06:36:45.013Z,64.20
2018-12-26T06:39:25.829Z,61.63
2018-12-26T06:42:06.448Z,63.30
2018-12-26T06:44:46.881Z,53.23
2018-12-26T06:47:27.334Z,54.95
2018-12-26T06:50:08.104Z,47.50
2018-12-26T06:52:49.405Z,52.10
2018-12-26T06:55:30.050Z,53.60
2018-12-26T06:58:10.568Z,51.75
2018-12-26T07:00:51.609Z,58.40
2018-12-26T07:03:32.105Z,57.27
2018-12-26T07:06:12.969Z,62.33
2018-12-26T07:08:54.161Z,38.63
2018-12-26T07:11:34.651Z,57.38
2018-12-26T07:14:16.011Z,51.75
2018-12-26T07:16:56.773Z,51.80
2018-12-26T07:19:37.777Z,43.05
2018-12-26T07:22:18.473Z,46.83
2018-12-26T07:24:59.901Z,44.18
2018-12-26T07:27:40.756Z,51.75
2018-12-26T07:30:21.429Z,37.60
2018-12-26T07:33:02.611Z,53.33
2018-12-26T07:35:43.726Z,58.70
2018-12-26T07:38:25.013Z,59.50
2018-12-26T07:41:05.785Z,64.07
2018-12-26T07:43:46.864Z,60.98
2018-12-26T07:46:27.854Z,60.30
2018-12-26T07:49:09.198Z,58.02
2018-12-26T07:51:50.484Z,53.60
2018-12-26T07:54:31.277Z,58.68
2018-12-26T07:57:11.709Z,57.40
2018-12-26T07:59:52.812Z,57.95
2018-12-26T08:02:33.706Z,41.77
2018-12-26T08:05:14.192Z,56.90
2018-12-26T08:07:55.111Z,55.90
2018-12-26T08:10:36.461Z,55.38
2018-12-26T08:13:17.710Z,52.33
2018-12-26T08:15:58.369Z,48.28
2018-12-26T08:18:39.521Z,34.30
2018-12-26T08:21:20.722Z,43.55
2018-12-26T08:24:01.342Z,42.60
2018-12-26T08:26:41.968Z,54.70
2018-12-26T08:29:22.865Z,48.80
2018-12-26T08:32:03.640Z,57.73
2018-12-26T08:34:43.001Z,46.00
2018-12-26T08:37:31.173Z,36.35
2018-12-26T08:43:12.896Z,56.80
2018-12-26T08:51:48.669Z,54.93
2018-12-26T08:54:36.805Z,51.63
2018-12-26T08:57:24.972Z,58.60
2018-12-26T09:03:06.754Z,56.28
2018-12-26T09:05:54.966Z,58.68
2018-12-26T09:08:36.261Z,61.85
2018-12-26T09:11:16.858Z,59.33
2018-12-26T09:13:57.853Z,61.63
2018-12-26T09:16:38.475Z,62.43
2018-12-26T09:19:19.318Z,51.50
2018-12-26T09:21:59.772Z,36.30
2018-12-26T09:24:40.743Z,47.43
2018-12-26T09:27:21.925Z,62.45
2018-12-26T09:30:03.281Z,58.40
2018-12-26T09:32:44.421Z,52.83
2018-12-26T09:35:25.775Z,58.28
2018-12-26T09:38:06.961Z,49.30
2018-12-26T09:40:47.982Z,38.83
2018-12-26T09:43:27.288Z,50.65
2018-12-26T09:46:15.453Z,46.60
2018-12-26T09:49:03.602Z,58.65
2018-12-26T09:51:51.771Z,53.95
2018-12-26T09:54:40.047Z,53.52
2018-12-26T09:57:28.277Z,48.20
2018-12-26T10:00:16.476Z,52.93
2018-12-26T10:03:04.640Z,48.60
2018-12-26T10:05:53.012Z,53.48
2018-12-26T10:11:48.497Z,53.35
2018-12-26T10:14:36.636Z,59.88
2018-12-26T10:23:13.132Z,59.55
2018-12-26T10:26:01.313Z,55.40
2018-12-26T10:28:49.584Z,47.67
2018-12-26T10:34:38.143Z,52.90
2018-12-26T10:37:19.098Z,51.83
2018-12-26T10:40:00.443Z,53.05
2018-12-26T10:42:41.720Z,56.88
2018-12-26T10:45:22.138Z,57.60
2018-12-26T10:48:03.079Z,50.65
2018-12-26T10:50:44.361Z,52.33
2018-12-26T10:53:25.301Z,52.35
2018-12-26T10:56:06.163Z,52.43
2018-12-26T10:58:46.549Z,51.92
2018-12-26T11:01:27.137Z,51.05
2018-12-26T11:04:08.384Z,54.30
2018-12-26T11:06:49.194Z,57.60
2018-12-26T11:09:30.667Z,56.25
2018-12-26T11:12:11.938Z,60.48
2018-12-26T11:14:53.146Z,55.05
2018-12-26T11:17:34.242Z,61.33
2018-12-26T11:20:15.122Z,52.08
2018-12-26T11:22:55.451Z,54.75
2018-12-26T11:25:35.911Z,55.20
2018-12-26T11:28:16.813Z,58.80
2018-12-26T11:30:57.366Z,56.63
2018-12-26T11:33:38.707Z,55.35
2018-12-26T11:36:19.998Z,54.50
2018-12-26T11:39:00.537Z,50.78
2018-12-26T11:41:41.877Z,51.50
2018-12-26T11:44:21.280Z,51.50
2018-12-26T11:52:58.338Z,51.68
2018-12-26T11:55:27.375Z,52.05
2018-12-26T11:57:56.416Z,55.17
2018-12-26T12:00:25.589Z,48.68
2018-12-26T12:02:54.617Z,49.40
2018-12-26T12:05:23.697Z,52.60
2018-12-26T12:07:52.748Z,53.45
2018-12-26T12:10:21.744Z,53.08
2018-12-26T12:12:50.739Z,52.00
2018-12-26T12:15:21.652Z,53.02
2018-12-26T12:17:50.709Z,51.55
2018-12-26T12:20:19.634Z,51.13
2018-12-26T12:22:48.736Z,45.80
2018-12-26T12:25:17.636Z,51.65
2018-12-26T12:27:46.845Z,50.58
2018-12-26T12:30:15.956Z,45.17
2018-12-26T12:32:45.074Z,56.40
2018-12-26T12:35:14.168Z,37.50
2018-12-26T12:37:43.176Z,51.35
2018-12-26T12:40:12.664Z,54.13
2018-12-26T12:42:41.909Z,60.23
2018-12-26T12:45:10.958Z,59.30
2018-12-26T12:47:39.936Z,58.10
2018-12-26T12:50:09.097Z,54.58
2018-12-26T12:52:38.048Z,53.35
2018-12-26T12:55:07.208Z,50.28
2018-12-26T12:57:36.211Z,52.43
2018-12-26T13:00:05.497Z,48.63
2018-12-26T13:02:34.477Z,50.83
2018-12-26T13:05:03.709Z,53.67
2018-12-26T13:07:32.640Z,50.58
2018-12-26T13:10:01.721Z,46.70
2018-12-26T13:12:30.713Z,54.30
2018-12-26T13:14:59.731Z,52.90
2018-12-26T13:17:28.729Z,52.65
2018-12-26T13:19:57.807Z,51.80
2018-12-26T13:22:27.078Z,51.20
2018-12-26T13:24:56.157Z,46.97
2018-12-26T13:27:25.042Z,45.53
2018-12-26T13:29:54.188Z,50.10
2018-12-26T13:32:23.248Z,47.07
2018-12-26T13:34:53.301Z,53.27
2018-12-26T13:37:22.533Z,49.40
2018-12-26T13:39:51.616Z,54.23
2018-12-26T13:42:20.569Z,50.50
2018-12-26T13:44:49.622Z,51.53
2018-12-26T13:47:18.680Z,50.73
2018-12-26T13:49:47.764Z,51.80
2018-12-26T13:52:16.716Z,49.27
2018-12-26T13:54:45.683Z,50.13
2018-12-26T13:57:14.736Z,50.85
2018-12-26T13:59:43.922Z,52.17
2018-12-26T14:02:13.897Z,48.93
2018-12-26T14:04:42.970Z,50.73
2018-12-26T14:07:12.092Z,51.37
2018-12-26T14:09:41.118Z,53.27
2018-12-26T14:12:10.329Z,52.85
2018-12-26T14:14:39.424Z,57.13
2018-12-26T14:17:08.480Z,60.17
2018-12-26T14:19:37.455Z,58.87
2018-12-26T14:22:06.638Z,54.50
2018-12-26T14:24:36.011Z,57.17
2018-12-26T14:27:05.006Z,59.18
2018-12-26T14:29:34.138Z,57.60
2018-12-26T14:32:03.316Z,53.98
2018-12-26T14:34:32.444Z,53.68
2018-12-26T14:37:01.504Z,57.50
2018-12-26T14:39:30.530Z,53.92
2018-12-26T14:41:59.500Z,55.50
2018-12-26T14:44:28.482Z,51.55
2018-12-26T14:46:57.895Z,52.75
2018-12-26T14:49:26.872Z,49.00
2018-12-26T14:51:55.875Z,49.83
2018-12-26T14:54:25.134Z,64.75
2018-12-26T14:56:54.181Z,58.33
2018-12-26T14:59:23.173Z,58.20
2018-12-26T15:01:52.260Z,56.40
2018-12-26T15:04:21.274Z,56.48
2018-12-26T15:06:50.341Z,55.28
2018-12-26T15:09:19.510Z,59.50
2018-12-26T15:11:48.597Z,59.45
2018-12-26T15:14:17.525Z,55.63
2018-12-26T15:16:46.710Z,58.80
2018-12-26T15:19:17.905Z,60.52
2018-12-26T15:21:46.906Z,56.18
2018-12-26T15:24:16.095Z,53.13
2018-12-26T15:26:45.404Z,57.48
2018-12-26T15:29:14.473Z,59.08
2018-12-26T15:31:43.564Z,57.30
2018-12-26T15:34:12.784Z,60.48
2018-12-26T15:36:41.949Z,64.97
2018-12-26T15:39:11.656Z,56.28
2018-12-26T15:41:40.754Z,61.48
2018-12-26T15:44:09.724Z,62.88
2018-12-26T15:46:38.777Z,59.45
2018-12-26T15:49:07.833Z,62.08
2018-12-26T15:51:36.916Z,61.18
2018-12-26T15:54:05.993Z,63.52
2018-12-26T15:56:35.037Z,59.75
2018-12-26T15:59:04.017Z,59.45
2018-12-26T16:01:33.116Z,62.27
2018-12-26T16:04:02.230Z,60.38
2018-12-26T16:06:31.333Z,65.65
2018-12-26T16:09:00.336Z,65.25
2018-12-26T16:11:29.451Z,58.78
2018-12-26T16:13:58.444Z,64.65
2018-12-26T16:16:27.596Z,66.77
2018-12-26T16:18:56.682Z,66.12
2018-12-26T16:21:27.270Z,72.27
2018-12-26T16:23:56.429Z,61.73
2018-12-26T16:26:25.588Z,65.67
2018-12-26T16:28:54.669Z,63.48
2018-12-26T16:31:23.562Z,65.47
2018-12-26T16:33:52.744Z,61.68
2018-12-26T16:36:21.784Z,63.30
2018-12-26T16:38:50.943Z,64.03
2018-12-26T16:41:19.850Z,64.95
2018-12-26T16:43:48.980Z,65.70
2018-12-26T16:46:18.089Z,64.72
2018-12-26T16:48:47.075Z,59.90
2018-12-26T16:51:16.049Z,61.53
2018-12-26T16:53:45.140Z,69.82
2018-12-26T16:56:14.125Z,63.87
2018-12-26T16:58:43.121Z,66.82
2018-12-26T17:01:12.328Z,68.20
2018-12-26T17:03:41.345Z,65.17
2018-12-26T17:06:10.426Z,61.95
2018-12-26T17:08:39.535Z,59.60
2018-12-26T17:11:08.505Z,72.92
2018-12-26T17:13:38.583Z,57.33
2018-12-26T17:16:07.920Z,56.80
2018-12-26T17:18:37.053Z,63.63
2018-12-26T17:21:06.179Z,63.33
2018-12-26T17:23:35.229Z,70.15
2018-12-26T17:26:04.283Z,64.53
2018-12-26T17:28:33.321Z,64.27
2018-12-26T17:31:04.207Z,70.30
2018-12-26T17:33:33.333Z,66.25
2018-12-26T17:36:02.400Z,66.67
2018-12-26T17:38:31.754Z,61.80
2018-12-26T17:41:00.828Z,65.57
2018-12-26T17:43:29.897Z,62.17
2018-12-26T17:45:59.018Z,67.55
2018-12-26T17:48:28.158Z,68.37
2018-12-26T17:50:57.413Z,68.17
2018-12-26T17:54:06.446Z,67.40
2018-12-26T17:56:56.021Z,65.40
2018-12-26T17:59:36.224Z,67.87
2018-12-26T18:02:21.976Z,70.32
2018-12-26T18:04:51.185Z,75.85
2018-12-26T18:07:20.255Z,72.25
2018-12-26T18:09:49.217Z,69.60
2018-12-26T18:12:18.369Z,67.62
2018-12-26T18:14:47.364Z,71.95
2018-12-26T18:17:16.383Z,96.22
2018-12-26T18:19:45.292Z,78.67
2018-12-26T18:22:14.609Z,82.30
2018-12-26T18:24:43.656Z,71.55
2018-12-26T18:27:12.779Z,86.47
2018-12-26T18:29:41.891Z,71.20
2018-12-26T18:32:10.903Z,69.10
2018-12-26T18:34:40.326Z,73.17
2018-12-26T18:37:09.413Z,65.70
2018-12-26T18:39:38.572Z,32.98
2018-12-26T18:42:08.061Z,52.60
2018-12-26T18:44:37.193Z,65.40
2018-12-26T18:47:06.579Z,65.15
2018-12-26T18:49:35.701Z,69.58
2018-12-26T18:52:04.672Z,68.20
2018-12-26T18:54:52.874Z,66.95
2018-12-26T18:57:21.855Z,63.52
2018-12-26T18:59:51.036Z,50.85
2018-12-26T19:02:20.273Z,59.00
2018-12-26T19:04:49.412Z,68.60
2018-12-26T19:07:18.468Z,60.35
2018-12-26T19:09:47.521Z,68.78
2018-12-26T19:12:16.663Z,61.85
2018-12-26T19:14:45.653Z,61.42
2018-12-26T19:17:14.832Z,72.40
2018-12-26T19:19:43.926Z,63.92
2018-12-26T19:22:12.991Z,71.17
2018-12-26T19:24:42.117Z,60.05
2018-12-26T19:27:11.194Z,70.83
2018-12-26T19:29:40.144Z,66.72
2018-12-26T19:32:09.147Z,63.50
2018-12-26T19:34:38.188Z,59.05
2018-12-26T19:37:08.118Z,60.73
2018-12-26T19:39:37.235Z,72.22
2018-12-26T19:42:06.280Z,65.97
2018-12-26T19:44:35.468Z,73.90
2018-12-26T19:47:04.645Z,76.47
2018-12-26T19:49:35.817Z,70.87
2018-12-26T19:52:04.781Z,69.58
2018-12-26T19:54:33.859Z,66.70
2018-12-26T19:57:02.849Z,73.60
2018-12-26T19:59:31.905Z,67.12
2018-12-26T20:02:00.913Z,70.72
2018-12-26T20:04:29.943Z,75.83
2018-12-26T20:06:59.005Z,72.80
2018-12-26T20:09:28.191Z,74.53
2018-12-26T20:12:02.574Z,69.10
2018-12-26T20:14:31.669Z,71.37
2018-12-26T20:17:00.653Z,70.90
2018-12-26T20:19:29.870Z,76.15
2018-12-26T20:21:58.818Z,80.05
2018-12-26T20:24:27.860Z,71.65
2018-12-26T20:26:56.910Z,77.10
2018-12-26T20:29:27.007Z,74.53
2018-12-26T20:31:56.985Z,83.70
2018-12-26T20:34:26.517Z,77.65
2018-12-26T20:36:55.573Z,73.30
2018-12-26T20:39:24.924Z,77.95
2018-12-26T20:41:53.993Z,88.33
2018-12-26T20:44:23.002Z,76.65
2018-12-26T20:46:52.005Z,73.92
2018-12-26T20:49:21.215Z,72.60
2018-12-26T20:51:50.237Z,80.83
2018-12-26T20:54:19.550Z,94.28
2018-12-26T20:56:48.616Z,78.25
2018-12-26T20:59:17.687Z,73.78
2018-12-26T21:01:46.804Z,78.67
2018-12-26T21:04:15.816Z,80.80
2018-12-26T21:06:46.772Z,86.63
2018-12-26T21:09:15.764Z,83.27
2018-12-26T21:11:44.873Z,81.95
2018-12-26T21:14:13.901Z,80.22
2018-12-26T21:16:42.964Z,84.00
2018-12-26T21:19:12.427Z,87.10
2018-12-26T21:21:41.516Z,84.97
2018-12-26T21:24:10.660Z,85.90
2018-12-26T21:26:39.830Z,79.15
2018-12-26T21:29:08.745Z,82.42
2018-12-26T21:31:37.783Z,79.25
2018-12-26T21:34:07.016Z,72.08
2018-12-26T21:36:36.101Z,76.45
2018-12-26T21:39:07.433Z,72.12
2018-12-26T21:41:36.493Z,69.05
2018-12-26T21:44:05.499Z,80.10
2018-12-26T21:46:34.593Z,77.90
2018-12-26T21:49:03.660Z,74.00
2018-12-26T21:51:32.624Z,70.83
2018-12-26T21:54:01.746Z,70.20
2018-12-26T21:56:31.897Z,74.97
2018-12-26T21:59:00.870Z,71.28
2018-12-26T22:01:29.930Z,77.58
2018-12-26T22:03:59.060Z,75.03
2018-12-26T22:06:28.189Z,83.40
2018-12-26T22:08:57.180Z,76.22
2018-12-26T22:11:26.383Z,77.50
2018-12-26T22:13:55.375Z,80.70
2018-12-26T22:16:24.476Z,80.80
2018-12-26T22:18:53.560Z,80.25
2018-12-26T22:21:22.580Z,68.83
2018-12-26T22:23:51.580Z,90.72
2018-12-26T22:26:20.733Z,76.55
2018-12-26T22:28:49.793Z,85.67
2018-12-26T22:31:18.836Z,74.10
2018-12-26T22:33:47.908Z,78.37
2018-12-26T22:36:16.886Z,70.05
2018-12-26T22:38:45.847Z,67.40
2018-12-26T22:41:14.974Z,72.53
2018-12-26T22:43:43.943Z,69.50
2018-12-26T22:46:13.049Z,79.97
2018-12-26T22:48:42.025Z,79.15
2018-12-26T22:51:11.291Z,72.10
2018-12-26T22:53:40.398Z,74.05
2018-12-26T22:56:09.365Z,71.07
2018-12-26T22:58:38.309Z,78.00
2018-12-26T23:01:07.385Z,68.72
2018-12-26T23:03:36.442Z,76.62
2018-12-26T23:06:05.474Z,78.47
2018-12-26T23:08:34.547Z,70.62
2018-12-26T23:11:03.646Z,71.28
2018-12-26T23:13:32.681Z,74.67
2018-12-26T23:16:01.698Z,71.28
2018-12-26T23:18:30.629Z,75.70
2018-12-26T23:20:59.631Z,71.60
2018-12-26T23:23:28.672Z,66.42
2018-12-26T23:25:58.005Z,75.87
2018-12-26T23:28:27.058Z,67.22
2018-12-26T23:30:56.293Z,77.60
2018-12-26T23:33:25.292Z,72.03
2018-12-26T23:35:54.220Z,73.28
2018-12-26T23:38:24.349Z,77.05
2018-12-26T23:40:53.390Z,79.32
2018-12-26T23:43:22.361Z,71.40
2018-12-26T23:45:51.441Z,81.17
2018-12-26T23:48:20.501Z,76.15
2018-12-26T23:50:49.558Z,83.62
2018-12-26T23:53:18.665Z,73.75
2018-12-26T23:55:47.641Z,73.05
2018-12-26T23:58:16.676Z,70.72
